Des Moines, IA

6:24 PM CDT on September 19, 2014 (GMT -0500)
Des Moines International | Change Station
CLOSE
Current Station
Airport
Location: Des Moines,
Elevation: 965 ft
Nearby Weather Stations

Elev 965 ft 41.53 °N, 93.66 °W | Updated 30 minutes ago

Partly Cloudy
Partly Cloudy
78 °F
Feels Like 78 °F
N
20
Wind Variable Wind from South
Gusts 25 mph

Today
High -- | Low -- °F
--% Chance of Precip.
Yesterday
High -- | Low -- °F
Precip. -- in
6:58 AM 7:16 PM
Waning Crescent, 16% visible
Pressure 29.83 in
Visibility 10.0 miles
Clouds Scattered Clouds 20000 ft
Mostly Cloudy 30000 ft
Dew Point 66 °F
Humidity 66%
Rainfall 0.00 in
Snow Depth Not available.
UV 0 out of 12
Pollen 5.60 out of 12
Ozone Good
PM2.5 Good
Flu Activity Not available.
METAR KDSM 192254Z 18017G22KT 10SM SCT200 BKN300 26/19 A2985 RMK AO2 SLP102 T02560189

More Conditions Fewer Conditions

Pressure 29.83 in
Visibility 10.0 miles
Clouds Scattered Clouds 20000 ft
Mostly Cloudy 30000 ft
Dew Point 66 °F
Humidity 66%
Rainfall 0.00 in
Snow Depth Not available.
UV 0 out of 12
Pollen 5.60 out of 12
Ozone Good
PM2.5 Good
Flu Activity Not available.
METAR KDSM 192254Z 18017G22KT 10SM SCT200 BKN300 26/19 A2985 RMK AO2 SLP102 T02560189

More Conditions Fewer Conditions

10-Day Weather Forecast

Almanac

Astronomy

Sep. 19, 2014 Rise Set
Actual Time 6:58 AM CDT 7:16 PM CDT
Civil Twilight 6:31 AM CDT 7:44 PM CDT
Nautical Twilight 5:58 AM CDT 8:17 PM CDT
Astronomical Twilight 5:25 AM CDT 8:50 PM CDT
Moon 2:42 AM CDT 4:48 PM CDT
Length of Visible Light 13h 13m
Length of Day
12h 17m
Tomorrow will be 2m 45s shorter.
Waning Crescent, 16% of the Moon is Illuminated
Today
Waning Crescent
Sep 24
New
Oct 1
First Quarter
Oct 8
Full
Oct 15
Last Quarter

Today's Extremes

State Highs State Lows

Community

WunderPhotos

Upload Photos

1,754,724 photos uploaded!

Nearby

Air Quality

  Air Quality AQ Index Pollutant
Yesterday Good
PM2.5
Yesterday Good
OZONE
Current Good
PM2.5
Current Good
OZONE
Friday Good
OZONE
Friday Good
PM2.5
Friday Good
CO
Friday Good
NO2
Saturday Good
OZONE
Saturday Good
PM2.5
Saturday Good
CO
Saturday Good
NO2
Sunday Good
OZONE
Sunday Good
PM2.5
Sunday Good
CO
Sunday Good
NO2
Monday Good
OZONE
Monday Good
PM2.5
Monday Good
CO
Monday Good
NO2
Tuesday Good
OZONE
Tuesday Good
PM2.5
Tuesday Good
CO
Tuesday Good
NO2

Snow Depth

Station Depth Elevation
No new snow has been reported.

Earthquake Activity

City Distance Mag. Time & Date
No recent earthquake activity has been reported nearby.
Minimum magnitude displayed is 2.5.

Coastal Water Temperatures

Place Temperature
No Stations Reporting

Nearby Weather Stations